sensor_id;sensor_type;location;lat;lon;timestamp;P1;durP1;ratioP1;P2;durP2;ratioP2
86080;SDS011;76690;46.208;11.094;2024-03-02T13:43:16;4.40;;;1.30;;
86080;SDS011;76690;46.208;11.094;2024-03-02T13:45:43;6.20;;;1.42;;
86080;SDS011;76690;46.208;11.094;2024-03-02T13:48:09;4.68;;;1.58;;
86080;SDS011;76690;46.208;11.094;2024-03-02T13:50:35;1.88;;;1.17;;
86080;SDS011;76690;46.208;11.094;2024-03-02T13:53:01;6.65;;;1.42;;
86080;SDS011;76690;46.208;11.094;2024-03-02T13:55:28;5.68;;;1.90;;
86080;SDS011;76690;46.208;11.094;2024-03-02T13:57:54;4.82;;;1.00;;
86080;SDS011;76690;46.208;11.094;2024-03-02T14:00:20;3.83;;;1.27;;
86080;SDS011;76690;46.208;11.094;2024-03-02T14:02:46;2.50;;;1.15;;
86080;SDS011;76690;46.208;11.094;2024-03-02T14:05:14;5.22;;;1.40;;
86080;SDS011;76690;46.208;11.094;2024-03-02T14:07:41;3.92;;;1.88;;
86080;SDS011;76690;46.208;11.094;2024-03-02T14:10:07;4.53;;;1.40;;
86080;SDS011;76690;46.208;11.094;2024-03-02T14:12:33;3.13;;;1.88;;
86080;SDS011;76690;46.208;11.094;2024-03-02T14:14:59;2.28;;;1.58;;
86080;SDS011;76690;46.208;11.094;2024-03-02T14:17:27;4.43;;;1.25;;
86080;SDS011;76690;46.208;11.094;2024-03-02T14:19:53;2.67;;;1.23;;
86080;SDS011;76690;46.208;11.094;2024-03-02T14:22:19;3.55;;;1.27;;
86080;SDS011;76690;46.208;11.094;2024-03-02T14:24:46;4.57;;;1.17;;
86080;SDS011;76690;46.208;11.094;2024-03-02T14:27:13;1.58;;;0.95;;
86080;SDS011;76690;46.208;11.094;2024-03-02T14:29:39;2.67;;;1.02;;
86080;SDS011;76690;46.208;11.094;2024-03-02T14:32:06;2.65;;;1.00;;
86080;SDS011;76690;46.208;11.094;2024-03-02T14:34:32;1.38;;;1.00;;
86080;SDS011;76690;46.208;11.094;2024-03-02T14:36:58;2.70;;;1.50;;
86080;SDS011;76690;46.208;11.094;2024-03-02T14:39:25;1.58;;;1.48;;
86080;SDS011;76690;46.208;11.094;2024-03-02T14:41:51;2.60;;;1.30;;
86080;SDS011;76690;46.208;11.094;2024-03-02T14:44:17;1.85;;;1.10;;
86080;SDS011;76690;46.208;11.094;2024-03-02T14:46:43;3.50;;;1.30;;
86080;SDS011;76690;46.208;11.094;2024-03-02T14:51:38;2.38;;;1.60;;
86080;SDS011;76690;46.208;11.094;2024-03-02T14:54:04;2.08;;;1.00;;
86080;SDS011;76690;46.208;11.094;2024-03-02T14:56:30;2.30;;;1.30;;
86080;SDS011;76690;46.208;11.094;2024-03-02T14:58:56;3.53;;;1.20;;
86080;SDS011;76690;46.208;11.094;2024-03-02T15:01:22;2.08;;;1.45;;
86080;SDS011;76690;46.208;11.094;2024-03-02T15:03:49;2.17;;;1.33;;
86080;SDS011;76690;46.208;11.094;2024-03-02T15:06:16;2.50;;;1.00;;
86080;SDS011;76690;46.208;11.094;2024-03-02T15:08:42;1.80;;;1.17;;
86080;SDS011;76690;46.208;11.094;2024-03-02T15:11:08;4.78;;;1.27;;
86080;SDS011;76690;46.208;11.094;2024-03-02T15:13:35;3.30;;;1.40;;
86080;SDS011;76690;46.208;11.094;2024-03-02T15:16:02;2.55;;;1.10;;
86080;SDS011;76690;46.208;11.094;2024-03-02T15:18:28;4.38;;;1.52;;
86080;SDS011;76690;46.208;11.094;2024-03-02T15:20:54;3.00;;;1.20;;
86080;SDS011;76690;46.208;11.094;2024-03-02T15:23:20;3.42;;;1.42;;
86080;SDS011;76690;46.208;11.094;2024-03-02T15:25:46;4.40;;;1.52;;
86080;SDS011;76690;46.208;11.094;2024-03-02T15:28:12;3.00;;;1.50;;
86080;SDS011;76690;46.208;11.094;2024-03-02T15:30:38;3.58;;;1.50;;
86080;SDS011;76690;46.208;11.094;2024-03-02T15:33:04;5.55;;;1.70;;
86080;SDS011;76690;46.208;11.094;2024-03-02T15:35:30;4.10;;;1.55;;
86080;SDS011;76690;46.208;11.094;2024-03-02T15:37:56;4.93;;;1.30;;
86080;SDS011;76690;46.208;11.094;2024-03-02T15:40:22;2.65;;;1.30;;
86080;SDS011;76690;46.208;11.094;2024-03-02T15:42:48;2.47;;;1.20;;
86080;SDS011;76690;46.208;11.094;2024-03-02T15:45:14;4.05;;;1.45;;
86080;SDS011;76690;46.208;11.094;2024-03-02T15:47:40;1.90;;;1.08;;
86080;SDS011;76690;46.208;11.094;2024-03-02T15:50:07;2.42;;;1.23;;
86080;SDS011;76690;46.208;11.094;2024-03-02T15:52:33;1.58;;;1.20;;
86080;SDS011;76690;46.208;11.094;2024-03-02T15:54:59;3.83;;;1.17;;
86080;SDS011;76690;46.208;11.094;2024-03-02T15:57:26;2.80;;;1.25;;
86080;SDS011;76690;46.208;11.094;2024-03-02T15:59:52;4.15;;;1.65;;
86080;SDS011;76690;46.208;11.094;2024-03-02T16:02:18;1.92;;;1.23;;
86080;SDS011;76690;46.208;11.094;2024-03-02T16:04:44;2.35;;;1.58;;
86080;SDS011;76690;46.208;11.094;2024-03-02T16:07:11;4.55;;;1.40;;
86080;SDS011;76690;46.208;11.094;2024-03-02T16:09:37;3.20;;;1.20;;
86080;SDS011;76690;46.208;11.094;2024-03-02T16:12:03;2.65;;;1.40;;
86080;SDS011;76690;46.208;11.094;2024-03-02T16:14:29;3.45;;;2.10;;
86080;SDS011;76690;46.208;11.094;2024-03-02T16:16:55;2.88;;;1.77;;
86080;SDS011;76690;46.208;11.094;2024-03-02T16:19:21;2.50;;;1.63;;
86080;SDS011;76690;46.208;11.094;2024-03-02T16:21:47;2.90;;;1.58;;
86080;SDS011;76690;46.208;11.094;2024-03-02T16:24:13;2.50;;;1.80;;
86080;SDS011;76690;46.208;11.094;2024-03-02T16:26:39;3.17;;;2.13;;
86080;SDS011;76690;46.208;11.094;2024-03-02T16:29:05;3.40;;;2.00;;
86080;SDS011;76690;46.208;11.094;2024-03-02T16:31:31;2.10;;;1.90;;
86080;SDS011;76690;46.208;11.094;2024-03-02T16:33:57;3.28;;;1.88;;
86080;SDS011;76690;46.208;11.094;2024-03-02T16:36:23;4.18;;;2.97;;
86080;SDS011;76690;46.208;11.094;2024-03-02T16:38:53;3.10;;;1.92;;
86080;SDS011;76690;46.208;11.094;2024-03-02T16:41:19;5.15;;;1.90;;
86080;SDS011;76690;46.208;11.094;2024-03-02T16:43:45;3.35;;;1.67;;
86080;SDS011;76690;46.208;11.094;2024-03-02T16:46:11;3.42;;;1.50;;
86080;SDS011;76690;46.208;11.094;2024-03-02T16:48:37;3.22;;;1.73;;
86080;SDS011;76690;46.208;11.094;2024-03-02T16:51:03;3.83;;;1.70;;
86080;SDS011;76690;46.208;11.094;2024-03-02T16:53:29;2.67;;;1.83;;
86080;SDS011;76690;46.208;11.094;2024-03-02T16:55:59;4.57;;;3.83;;
86080;SDS011;76690;46.208;11.094;2024-03-02T16:58:26;4.72;;;2.35;;
86080;SDS011;76690;46.208;11.094;2024-03-02T17:00:52;4.90;;;3.75;;
86080;SDS011;76690;46.208;11.094;2024-03-02T17:03:18;3.67;;;2.03;;
86080;SDS011;76690;46.208;11.094;2024-03-02T17:05:44;4.00;;;2.55;;
86080;SDS011;76690;46.208;11.094;2024-03-02T17:08:10;4.65;;;3.20;;
86080;SDS011;76690;46.208;11.094;2024-03-02T17:10:36;3.15;;;1.85;;
86080;SDS011;76690;46.208;11.094;2024-03-02T17:13:02;3.47;;;2.15;;
86080;SDS011;76690;46.208;11.094;2024-03-02T17:15:28;3.08;;;1.85;;
86080;SDS011;76690;46.208;11.094;2024-03-02T17:17:54;4.90;;;2.80;;
86080;SDS011;76690;46.208;11.094;2024-03-02T17:20:20;7.07;;;3.05;;
86080;SDS011;76690;46.208;11.094;2024-03-02T17:22:46;3.40;;;2.22;;
86080;SDS011;76690;46.208;11.094;2024-03-02T17:25:12;4.07;;;3.42;;
86080;SDS011;76690;46.208;11.094;2024-03-02T17:27:39;5.78;;;3.33;;
86080;SDS011;76690;46.208;11.094;2024-03-02T17:30:05;6.25;;;4.40;;
86080;SDS011;76690;46.208;11.094;2024-03-02T17:32:31;5.78;;;3.13;;
86080;SDS011;76690;46.208;11.094;2024-03-02T17:34:57;4.15;;;2.05;;
86080;SDS011;76690;46.208;11.094;2024-03-02T17:37:24;4.88;;;3.40;;
86080;SDS011;76690;46.208;11.094;2024-03-02T17:39:50;4.50;;;2.72;;
86080;SDS011;76690;46.208;11.094;2024-03-02T17:42:16;6.03;;;3.03;;
86080;SDS011;76690;46.208;11.094;2024-03-02T17:44:42;3.75;;;2.60;;
86080;SDS011;76690;46.208;11.094;2024-03-02T17:47:08;4.32;;;2.58;;
86080;SDS011;76690;46.208;11.094;2024-03-02T17:49:34;3.83;;;2.80;;
86080;SDS011;76690;46.208;11.094;2024-03-02T17:52:00;3.65;;;2.17;;
86080;SDS011;76690;46.208;11.094;2024-03-02T17:54:26;2.88;;;2.20;;
86080;SDS011;76690;46.208;11.094;2024-03-02T17:56:52;2.97;;;1.98;;
86080;SDS011;76690;46.208;11.094;2024-03-02T17:59:18;2.95;;;2.55;;
86080;SDS011;76690;46.208;11.094;2024-03-02T18:01:44;4.72;;;2.63;;
86080;SDS011;76690;46.208;11.094;2024-03-02T18:04:10;4.18;;;3.03;;
86080;SDS011;76690;46.208;11.094;2024-03-02T18:06:36;6.60;;;3.58;;
86080;SDS011;76690;46.208;11.094;2024-03-02T18:09:02;10.40;;;4.15;;
86080;SDS011;76690;46.208;11.094;2024-03-02T18:11:28;4.78;;;2.97;;
86080;SDS011;76690;46.208;11.094;2024-03-02T18:13:54;6.18;;;3.65;;
86080;SDS011;76690;46.208;11.094;2024-03-02T18:16:20;7.13;;;3.08;;
86080;SDS011;76690;46.208;11.094;2024-03-02T18:18:46;5.40;;;3.72;;
86080;SDS011;76690;46.208;11.094;2024-03-02T18:21:13;5.95;;;2.88;;
86080;SDS011;76690;46.208;11.094;2024-03-02T18:23:39;3.65;;;3.05;;
86080;SDS011;76690;46.208;11.094;2024-03-02T18:26:05;3.85;;;2.60;;
86080;SDS011;76690;46.208;11.094;2024-03-02T18:28:31;4.47;;;3.40;;
86080;SDS011;76690;46.208;11.094;2024-03-02T18:30:57;6.63;;;3.75;;
86080;SDS011;76690;46.208;11.094;2024-03-02T18:33:23;2.65;;;2.38;;
86080;SDS011;76690;46.208;11.094;2024-03-02T18:35:49;3.05;;;2.38;;
86080;SDS011;76690;46.208;11.094;2024-03-02T18:38:15;6.00;;;3.00;;
86080;SDS011;76690;46.208;11.094;2024-03-02T18:40:42;5.90;;;4.70;;
86080;SDS011;76690;46.208;11.094;2024-03-02T18:43:12;6.13;;;5.25;;
86080;SDS011;76690;46.208;11.094;2024-03-02T18:45:38;10.98;;;8.07;;
86080;SDS011;76690;46.208;11.094;2024-03-02T18:48:04;11.70;;;7.47;;
86080;SDS011;76690;46.208;11.094;2024-03-02T18:50:30;11.15;;;7.60;;
86080;SDS011;76690;46.208;11.094;2024-03-02T18:52:58;15.00;;;10.18;;
86080;SDS011;76690;46.208;11.094;2024-03-02T18:55:24;8.50;;;5.90;;
86080;SDS011;76690;46.208;11.094;2024-03-02T18:57:50;10.85;;;7.43;;
86080;SDS011;76690;46.208;11.094;2024-03-02T19:00:16;11.40;;;6.80;;
86080;SDS011;76690;46.208;11.094;2024-03-02T19:02:42;7.60;;;5.32;;
86080;SDS011;76690;46.208;11.094;2024-03-02T19:05:08;8.13;;;5.35;;
86080;SDS011;76690;46.208;11.094;2024-03-02T19:07:35;10.30;;;6.18;;
86080;SDS011;76690;46.208;11.094;2024-03-02T19:10:01;8.02;;;4.82;;
86080;SDS011;76690;46.208;11.094;2024-03-02T19:12:33;8.43;;;4.40;;
86080;SDS011;76690;46.208;11.094;2024-03-02T19:14:59;7.20;;;5.50;;
86080;SDS011;76690;46.208;11.094;2024-03-02T19:17:25;6.18;;;4.40;;
86080;SDS011;76690;46.208;11.094;2024-03-02T19:19:51;5.35;;;3.83;;
86080;SDS011;76690;46.208;11.094;2024-03-02T19:22:17;3.72;;;2.92;;
86080;SDS011;76690;46.208;11.094;2024-03-02T19:24:44;5.43;;;3.05;;
86080;SDS011;76690;46.208;11.094;2024-03-02T19:27:11;4.80;;;2.58;;
86080;SDS011;76690;46.208;11.094;2024-03-02T19:29:37;4.15;;;3.00;;
86080;SDS011;76690;46.208;11.094;2024-03-02T19:32:03;5.60;;;2.78;;
86080;SDS011;76690;46.208;11.094;2024-03-02T19:34:29;3.88;;;2.15;;
86080;SDS011;76690;46.208;11.094;2024-03-02T19:36:55;5.65;;;3.05;;
86080;SDS011;76690;46.208;11.094;2024-03-02T19:39:22;3.97;;;2.67;;
86080;SDS011;76690;46.208;11.094;2024-03-02T19:41:52;3.60;;;2.40;;
86080;SDS011;76690;46.208;11.094;2024-03-02T19:44:19;4.80;;;2.70;;
86080;SDS011;76690;46.208;11.094;2024-03-02T19:46:46;4.70;;;2.65;;
86080;SDS011;76690;46.208;11.094;2024-03-02T19:49:12;5.90;;;3.30;;
86080;SDS011;76690;46.208;11.094;2024-03-02T19:51:40;6.20;;;3.38;;
86080;SDS011;76690;46.208;11.094;2024-03-02T19:54:06;6.38;;;4.00;;
86080;SDS011;76690;46.208;11.094;2024-03-02T19:56:33;6.20;;;3.05;;
86080;SDS011;76690;46.208;11.094;2024-03-02T19:59:00;4.80;;;2.60;;
86080;SDS011;76690;46.208;11.094;2024-03-02T20:01:26;3.90;;;2.80;;
86080;SDS011;76690;46.208;11.094;2024-03-02T20:03:52;6.97;;;2.70;;
86080;SDS011;76690;46.208;11.094;2024-03-02T20:06:18;5.78;;;2.88;;
86080;SDS011;76690;46.208;11.094;2024-03-02T20:08:45;4.22;;;2.65;;
86080;SDS011;76690;46.208;11.094;2024-03-02T20:11:11;5.80;;;2.35;;
86080;SDS011;76690;46.208;11.094;2024-03-02T20:13:37;5.63;;;2.95;;
86080;SDS011;76690;46.208;11.094;2024-03-02T20:16:09;5.18;;;2.80;;
86080;SDS011;76690;46.208;11.094;2024-03-02T20:18:35;5.10;;;2.22;;
86080;SDS011;76690;46.208;11.094;2024-03-02T20:21:01;2.83;;;2.30;;
86080;SDS011;76690;46.208;11.094;2024-03-02T20:23:27;4.15;;;2.17;;
86080;SDS011;76690;46.208;11.094;2024-03-02T20:25:53;3.33;;;2.05;;
86080;SDS011;76690;46.208;11.094;2024-03-02T20:30:48;4.50;;;2.83;;
86080;SDS011;76690;46.208;11.094;2024-03-02T20:33:14;7.18;;;2.80;;
86080;SDS011;76690;46.208;11.094;2024-03-02T20:35:40;5.32;;;2.83;;
86080;SDS011;76690;46.208;11.094;2024-03-02T20:38:06;4.20;;;2.80;;
86080;SDS011;76690;46.208;11.094;2024-03-02T20:40:32;4.53;;;3.22;;
86080;SDS011;76690;46.208;11.094;2024-03-02T20:43:02;4.05;;;3.08;;
86080;SDS011;76690;46.208;11.094;2024-03-02T20:45:28;6.47;;;3.65;;
86080;SDS011;76690;46.208;11.094;2024-03-02T20:47:55;4.88;;;3.72;;
86080;SDS011;76690;46.208;11.094;2024-03-02T20:50:21;7.07;;;3.90;;
86080;SDS011;76690;46.208;11.094;2024-03-02T20:52:47;5.75;;;4.13;;
86080;SDS011;76690;46.208;11.094;2024-03-02T20:55:13;8.07;;;4.53;;
86080;SDS011;76690;46.208;11.094;2024-03-02T20:57:39;7.10;;;4.97;;
86080;SDS011;76690;46.208;11.094;2024-03-02T21:00:06;6.63;;;4.93;;
86080;SDS011;76690;46.208;11.094;2024-03-02T21:02:32;7.47;;;4.95;;
86080;SDS011;76690;46.208;11.094;2024-03-02T21:04:59;9.88;;;6.78;;
86080;SDS011;76690;46.208;11.094;2024-03-02T21:07:25;11.02;;;5.75;;
86080;SDS011;76690;46.208;11.094;2024-03-02T21:09:51;8.48;;;5.90;;
86080;SDS011;76690;46.208;11.094;2024-03-02T21:12:19;8.85;;;5.75;;
86080;SDS011;76690;46.208;11.094;2024-03-02T21:14:45;8.13;;;5.22;;
86080;SDS011;76690;46.208;11.094;2024-03-02T21:17:11;11.35;;;6.68;;
86080;SDS011;76690;46.208;11.094;2024-03-02T21:19:37;6.35;;;4.25;;
86080;SDS011;76690;46.208;11.094;2024-03-02T21:22:03;4.78;;;4.07;;
86080;SDS011;76690;46.208;11.094;2024-03-02T21:24:30;6.07;;;3.72;;
86080;SDS011;76690;46.208;11.094;2024-03-02T21:26:56;7.28;;;4.45;;
86080;SDS011;76690;46.208;11.094;2024-03-02T21:29:22;6.03;;;3.42;;
86080;SDS011;76690;46.208;11.094;2024-03-02T21:31:50;5.63;;;3.78;;
86080;SDS011;76690;46.208;11.094;2024-03-02T21:36:44;5.97;;;4.40;;
86080;SDS011;76690;46.208;11.094;2024-03-02T21:39:10;5.47;;;3.50;;
86080;SDS011;76690;46.208;11.094;2024-03-02T21:41:36;4.43;;;3.60;;
86080;SDS011;76690;46.208;11.094;2024-03-02T21:44:02;5.57;;;3.90;;
86080;SDS011;76690;46.208;11.094;2024-03-02T21:46:28;5.25;;;4.25;;
86080;SDS011;76690;46.208;11.094;2024-03-02T21:48:54;6.53;;;4.13;;
86080;SDS011;76690;46.208;11.094;2024-03-02T21:51:20;6.05;;;3.90;;
86080;SDS011;76690;46.208;11.094;2024-03-02T21:53:46;5.70;;;3.60;;
86080;SDS011;76690;46.208;11.094;2024-03-02T21:56:12;7.25;;;4.10;;
86080;SDS011;76690;46.208;11.094;2024-03-02T21:58:39;5.60;;;4.13;;
86080;SDS011;76690;46.208;11.094;2024-03-02T22:01:06;7.85;;;4.57;;
86080;SDS011;76690;46.208;11.094;2024-03-02T22:03:32;6.82;;;3.97;;
86080;SDS011;76690;46.208;11.094;2024-03-02T22:05:58;5.05;;;3.65;;
86080;SDS011;76690;46.208;11.094;2024-03-02T22:08:24;5.07;;;4.07;;
86080;SDS011;76690;46.208;11.094;2024-03-02T22:10:52;5.47;;;4.03;;
86080;SDS011;76690;46.208;11.094;2024-03-02T22:13:18;5.93;;;3.97;;
86080;SDS011;76690;46.208;11.094;2024-03-02T22:15:44;5.90;;;4.03;;
86080;SDS011;76690;46.208;11.094;2024-03-02T22:18:10;3.95;;;3.13;;
86080;SDS011;76690;46.208;11.094;2024-03-02T22:20:36;4.55;;;3.42;;
86080;SDS011;76690;46.208;11.094;2024-03-02T22:23:02;3.88;;;3.10;;
86080;SDS011;76690;46.208;11.094;2024-03-02T22:25:29;6.13;;;3.47;;
86080;SDS011;76690;46.208;11.094;2024-03-02T22:27:55;3.38;;;3.00;;
86080;SDS011;76690;46.208;11.094;2024-03-02T22:30:21;5.80;;;3.15;;
86080;SDS011;76690;46.208;11.094;2024-03-02T22:32:48;6.00;;;3.40;;
86080;SDS011;76690;46.208;11.094;2024-03-02T22:35:14;5.20;;;2.97;;
86080;SDS011;76690;46.208;11.094;2024-03-02T22:37:40;4.57;;;3.15;;
86080;SDS011;76690;46.208;11.094;2024-03-02T22:40:06;5.55;;;3.40;;
86080;SDS011;76690;46.208;11.094;2024-03-02T22:42:32;6.57;;;4.20;;
86080;SDS011;76690;46.208;11.094;2024-03-02T22:44:58;4.63;;;3.75;;
86080;SDS011;76690;46.208;11.094;2024-03-02T22:47:24;5.85;;;4.05;;
86080;SDS011;76690;46.208;11.094;2024-03-02T22:49:50;9.43;;;3.75;;
86080;SDS011;76690;46.208;11.094;2024-03-02T22:52:19;5.38;;;3.72;;
86080;SDS011;76690;46.208;11.094;2024-03-02T22:54:45;4.53;;;3.88;;
86080;SDS011;76690;46.208;11.094;2024-03-02T22:57:11;4.65;;;3.40;;
86080;SDS011;76690;46.208;11.094;2024-03-02T22:59:44;5.15;;;3.45;;
86080;SDS011;76690;46.208;11.094;2024-03-02T23:02:10;4.15;;;3.00;;
86080;SDS011;76690;46.208;11.094;2024-03-02T23:04:36;3.47;;;2.60;;
86080;SDS011;76690;46.208;11.094;2024-03-02T23:07:02;4.05;;;3.30;;
86080;SDS011;76690;46.208;11.094;2024-03-02T23:09:28;4.35;;;2.50;;
86080;SDS011;76690;46.208;11.094;2024-03-02T23:11:54;3.63;;;2.80;;
86080;SDS011;76690;46.208;11.094;2024-03-02T23:14:20;4.25;;;2.88;;
86080;SDS011;76690;46.208;11.094;2024-03-02T23:16:46;4.28;;;3.13;;
86080;SDS011;76690;46.208;11.094;2024-03-02T23:19:12;4.20;;;3.00;;
86080;SDS011;76690;46.208;11.094;2024-03-02T23:21:46;4.93;;;3.45;;
86080;SDS011;76690;46.208;11.094;2024-03-02T23:24:12;4.15;;;3.65;;
86080;SDS011;76690;46.208;11.094;2024-03-02T23:26:38;5.13;;;3.53;;
86080;SDS011;76690;46.208;11.094;2024-03-02T23:29:04;4.43;;;3.55;;
86080;SDS011;76690;46.208;11.094;2024-03-02T23:31:30;5.75;;;4.07;;
86080;SDS011;76690;46.208;11.094;2024-03-02T23:33:56;5.30;;;3.63;;
86080;SDS011;76690;46.208;11.094;2024-03-02T23:36:25;6.53;;;3.80;;
86080;SDS011;76690;46.208;11.094;2024-03-02T23:38:51;5.60;;;4.18;;
86080;SDS011;76690;46.208;11.094;2024-03-02T23:41:18;6.18;;;3.97;;
86080;SDS011;76690;46.208;11.094;2024-03-02T23:43:45;5.25;;;3.70;;
86080;SDS011;76690;46.208;11.094;2024-03-02T23:46:11;4.78;;;3.60;;
86080;SDS011;76690;46.208;11.094;2024-03-02T23:48:37;3.70;;;2.80;;
86080;SDS011;76690;46.208;11.094;2024-03-02T23:51:04;3.97;;;2.88;;
86080;SDS011;76690;46.208;11.094;2024-03-02T23:53:30;4.22;;;3.17;;
86080;SDS011;76690;46.208;11.094;2024-03-02T23:55:57;7.53;;;4.05;;
86080;SDS011;76690;46.208;11.094;2024-03-02T23:58:32;3.47;;;2.90;;
